メインページ
METAR-TAF:

METAR-TAF

空港 :

Dawson Creek, ブリティッシュコロンビア州, カナダ

緯度: 55-45N, 経度: 120-11W, 海抜: 655m

現時点の気象観測

当レポートは34分前の09:01(UTC)に作成
の風 4kt
気温 -5°C
湿度 93%
気圧 1017 hPa
視程: 2.8km
高度300ftの曇り

METAR: CYDQ 140901Z AUTO 36004KT 1 3/4SM BR OVC003 M05/M06 A3003 RMK VIS VRB 1-3 SLP201

時間: 02:35 (09:35 UTC)

予報

当レポートは6時間57分前の02:38(UTC)に作成
予報は14日の 02時(UTC)から 14日の 05時(UTC)まで有効
北東の風 6kt
視程: 6.4km
高度400ftの曇り
14日の 02時(UTC)から 14日の 05時(UTC)まで一時的に
視程: 0.8km
高度200ftの
着氷性の霧

TAF: CYDQ 140238Z 1402/1405 04006KT 4SM BR OVC004 TEMPO 1402/1405 1/2SM FZFG VV002 RMK FCST BASED ON AUTO OBS. NXT FCST WILL BE ISSUED AT 141245Z

4,000以上の空港の気象観測と天気予報(METAR報とTAF報)

利用可能な観測所は地図上に黄色い丸と赤い丸で示す。

丸の上にカーソルを重ねると観測所名を参照できる。

次にクリックすると気象観測と天気予報を参照できる。

マップの切り替え:黒色「×」印の緑ボタンをクリックして拡大、「-」印の緑ボタンをクリックして縮小、緑色の三角印をクリックして隣りの地図に切り替え


METAR-TAF: